Huvudsida
METAR-TAF:

METAR-TAF

Flygplatser :

Madrid / Getafe

Madrid-Getafe, Spanien

latitud: 40-18N, longitud: 003-43W, höjd: 620 m

Aktuellt väderrapport

Denna rapport gjordes för 2 timmar och 21 minuter sedan, klockan 18:00 UTC
Vind 5 kt från sydväst
Temperatur 30°C
Fuktighet 25%
Tryck 1020 hPa
Sikt 10 km eller mer
Inga moln under 1 500 m eller inga cumulonimbus

METAR: LEGT 211800Z 23005KT CAVOK 30/08 Q1020

Tid: 22:21 (20:21 UTC)

Väderprognos

Denna rapport gjordes för 3 timmar och 21 minuter sedan, klockan 17:00 UTC
Prognos gäller från 21 kl. 18 UTC till 22 kl. 03 UTC
Vind 4 kt varierande vindriktning
Sikt 10 km eller mer
Inga moln under 1 500 m eller inga cumulonimbus

TAF: LEGT 211700Z 2118/2203 VRB04KT CAVOK

Aktuella väderrapporter och prognoser från 4000 flygplatser (METAR- och TAF-rapporter).

De tillgängliga stationerna syns som gula och röda prickar på kartan.

För musen över prickarna för att se namnen på stationerna.

Klicka sedan för att få väderrapporter och prognoser.

För att ändra kartan: Klicka på de gröna knapparna med ett svart kors på för att zooma in; den gröna knappen med ett streck på för att zooma ut; eller på de gröna pilarna för angränsande kartor.


METAR-TAF: